createdAt,value
2022-11-25T00:02:15.330Z,3.40
2022-11-25T00:04:45.228Z,3.40
2022-11-25T00:07:15.085Z,3.40
2022-11-25T00:09:44.953Z,3.40
2022-11-25T00:12:14.794Z,3.40
2022-11-25T00:14:47.209Z,3.40
2022-11-25T00:17:17.052Z,3.40
2022-11-25T00:19:48.942Z,3.40
2022-11-25T00:22:19.276Z,3.40
2022-11-25T00:24:49.121Z,3.40
2022-11-25T00:27:18.963Z,3.40
2022-11-25T00:29:51.429Z,3.40
2022-11-25T00:32:22.189Z,3.40
2022-11-25T00:34:52.118Z,3.40
2022-11-25T00:37:21.975Z,3.40
2022-11-25T00:39:51.852Z,3.50
2022-11-25T00:42:34.239Z,3.50
2022-11-25T00:45:08.264Z,3.50
2022-11-25T00:47:38.082Z,3.50
2022-11-25T00:50:10.293Z,3.50
2022-11-25T00:52:40.145Z,3.50
2022-11-25T00:55:11.527Z,3.50
2022-11-25T00:57:41.346Z,3.50
2022-11-25T01:00:16.307Z,3.50
2022-11-25T01:02:46.262Z,3.50
2022-11-25T01:05:16.198Z,3.50
2022-11-25T01:07:46.531Z,3.50
2022-11-25T01:10:16.528Z,3.50
2022-11-25T01:12:49.847Z,3.50
2022-11-25T01:15:22.266Z,3.50
2022-11-25T01:17:52.147Z,3.50
2022-11-25T01:20:21.966Z,3.50
2022-11-25T01:22:51.810Z,3.50
2022-11-25T01:25:21.716Z,3.50
2022-11-25T01:27:51.566Z,3.50
2022-11-25T01:30:23.992Z,3.50
2022-11-25T01:32:53.846Z,3.50
2022-11-25T01:35:23.778Z,3.50
2022-11-25T01:37:53.627Z,3.50
2022-11-25T01:40:23.496Z,3.50
2022-11-25T01:42:53.358Z,3.50
2022-11-25T01:45:37.799Z,3.50
2022-11-25T01:48:15.907Z,3.50
2022-11-25T01:50:46.988Z,3.50
2022-11-25T01:53:19.330Z,3.50
2022-11-25T01:55:54.349Z,3.50
2022-11-25T01:58:29.800Z,3.50
2022-11-25T02:01:02.396Z,3.50
2022-11-25T02:03:37.023Z,3.50
2022-11-25T02:06:12.775Z,3.50
2022-11-25T02:08:44.042Z,3.50
2022-11-25T02:11:14.386Z,3.50
2022-11-25T02:13:44.816Z,3.50
2022-11-25T02:16:17.312Z,3.50
2022-11-25T02:18:47.262Z,3.50
2022-11-25T02:21:21.318Z,3.50
2022-11-25T02:23:57.952Z,3.50
2022-11-25T02:26:30.483Z,3.50
2022-11-25T02:29:00.482Z,3.60
2022-11-25T02:31:30.380Z,3.60
2022-11-25T02:34:00.270Z,3.50
2022-11-25T02:36:30.257Z,3.60
2022-11-25T02:39:02.881Z,3.60
2022-11-25T02:41:38.390Z,3.60
2022-11-25T02:44:09.165Z,3.60
2022-11-25T02:46:39.335Z,3.60
2022-11-25T02:49:10.441Z,3.60
2022-11-25T02:51:43.913Z,3.60
2022-11-25T02:54:15.609Z,3.60
2022-11-25T02:56:48.111Z,3.60
2022-11-25T02:59:18.017Z,3.60
2022-11-25T03:01:47.983Z,3.60
2022-11-25T03:04:17.876Z,3.60
2022-11-25T03:06:47.727Z,3.60
2022-11-25T03:09:17.604Z,3.60
2022-11-25T03:12:02.568Z,3.60
2022-11-25T03:14:32.722Z,3.60
2022-11-25T03:17:02.653Z,3.60
2022-11-25T03:19:32.498Z,3.60
2022-11-25T03:22:02.360Z,3.60
2022-11-25T03:24:32.584Z,3.60
2022-11-25T03:27:05.014Z,3.60
2022-11-25T03:29:35.055Z,3.60
2022-11-25T03:32:09.303Z,3.60
2022-11-25T03:34:39.689Z,3.60
2022-11-25T03:37:10.301Z,3.60
2022-11-25T03:39:40.195Z,3.60
2022-11-25T03:42:12.722Z,3.60
2022-11-25T03:44:42.630Z,3.60
2022-11-25T03:47:12.868Z,3.60
2022-11-25T03:49:42.715Z,3.60
2022-11-25T03:52:12.602Z,3.60
2022-11-25T03:54:42.491Z,3.60
2022-11-25T03:57:15.059Z,3.60
2022-11-25T03:59:44.902Z,3.60
2022-11-25T04:02:14.830Z,3.60
2022-11-25T04:04:44.897Z,3.60
2022-11-25T04:07:14.848Z,3.60
2022-11-25T04:09:44.744Z,3.60
2022-11-25T04:12:29.670Z,3.60
2022-11-25T04:14:59.490Z,3.70
2022-11-25T04:17:29.344Z,3.70
2022-11-25T04:19:59.226Z,3.70
2022-11-25T04:22:29.072Z,3.70
2022-11-25T04:24:58.918Z,3.70
2022-11-25T04:27:31.392Z,3.70
2022-11-25T04:30:01.340Z,3.70
2022-11-25T04:32:31.436Z,3.70
2022-11-25T04:35:01.324Z,3.70
2022-11-25T04:37:31.196Z,3.70
2022-11-25T04:40:01.045Z,3.70
2022-11-25T04:42:39.149Z,3.70
2022-11-25T04:45:33.369Z,3.70
2022-11-25T04:48:03.036Z,3.70
2022-11-25T04:50:32.906Z,3.70
2022-11-25T04:53:02.776Z,3.70
2022-11-25T04:55:32.765Z,3.70
2022-11-25T04:58:05.239Z,3.70
2022-11-25T05:00:32.546Z,3.70
2022-11-25T05:03:02.415Z,3.70
2022-11-25T05:05:32.510Z,3.70
2022-11-25T05:08:02.393Z,3.70
2022-11-25T05:10:32.269Z,3.80
2022-11-25T05:13:04.750Z,3.70
2022-11-25T05:15:34.601Z,3.80
2022-11-25T05:18:04.550Z,3.70
2022-11-25T05:20:34.377Z,3.70
2022-11-25T05:23:04.288Z,3.80
2022-11-25T05:25:34.109Z,3.70
2022-11-25T05:28:07.042Z,3.80
2022-11-25T05:30:36.952Z,3.70
2022-11-25T05:33:06.808Z,3.80
2022-11-25T05:35:36.637Z,3.70
2022-11-25T05:38:06.484Z,3.80
2022-11-25T05:40:36.332Z,3.80
2022-11-25T05:43:08.885Z,3.70
2022-11-25T05:45:41.682Z,3.70
2022-11-25T05:48:11.622Z,3.70
2022-11-25T05:50:42.517Z,3.70
2022-11-25T05:53:12.385Z,3.70
2022-11-25T05:55:42.232Z,3.70
2022-11-25T05:58:14.679Z,3.70
2022-11-25T06:00:46.457Z,3.70
2022-11-25T06:03:16.423Z,3.70
2022-11-25T06:05:46.627Z,3.70
2022-11-25T06:08:16.498Z,3.70
2022-11-25T06:10:46.362Z,3.70
2022-11-25T06:13:18.884Z,3.70
2022-11-25T06:15:49.828Z,3.70
2022-11-25T06:18:21.159Z,3.80
2022-11-25T06:21:00.260Z,3.80
2022-11-25T06:23:30.172Z,3.80
2022-11-25T06:26:09.677Z,3.80
2022-11-25T06:28:42.441Z,3.80
2022-11-25T06:31:15.046Z,3.80
2022-11-25T06:33:45.530Z,3.80
2022-11-25T06:36:17.387Z,3.80
2022-11-25T06:38:47.450Z,3.80
2022-11-25T06:41:18.102Z,3.80
2022-11-25T06:43:50.688Z,3.80
2022-11-25T06:46:25.107Z,3.80
2022-11-25T06:48:55.356Z,3.80
2022-11-25T06:51:25.329Z,3.80
2022-11-25T06:53:55.702Z,3.90
2022-11-25T06:56:28.833Z,3.80
2022-11-25T06:59:01.242Z,3.90
2022-11-25T07:01:33.053Z,3.90
2022-11-25T07:04:06.961Z,3.80
2022-11-25T07:06:37.286Z,3.90
2022-11-25T07:09:08.501Z,3.90
2022-11-25T07:11:41.062Z,3.90
2022-11-25T07:14:16.022Z,3.90
2022-11-25T07:16:48.014Z,3.90
2022-11-25T07:19:21.277Z,3.90
2022-11-25T07:21:51.366Z,3.90
2022-11-25T07:24:21.532Z,3.90
2022-11-25T07:26:51.356Z,3.90
2022-11-25T07:32:14.635Z,3.90
2022-11-25T07:34:44.636Z,3.90
2022-11-25T07:37:14.516Z,3.90
2022-11-25T07:39:44.381Z,3.90
2022-11-25T07:42:14.196Z,3.90
2022-11-25T07:44:46.595Z,3.90
2022-11-25T07:47:16.402Z,3.90
2022-11-25T07:49:46.230Z,3.90
2022-11-25T07:52:16.068Z,3.90
2022-11-25T07:54:45.951Z,3.90
2022-11-25T07:57:15.822Z,3.90
2022-11-25T07:59:48.280Z,3.90
2022-11-25T08:02:18.183Z,3.90
2022-11-25T08:04:48.075Z,3.90
2022-11-25T08:07:17.942Z,3.90
2022-11-25T08:09:47.907Z,3.90
2022-11-25T08:12:17.802Z,3.80
2022-11-25T08:14:50.248Z,3.90
2022-11-25T08:17:20.130Z,3.90
2022-11-25T08:19:50.014Z,3.80
2022-11-25T08:22:19.864Z,3.90
2022-11-25T08:24:49.693Z,3.90
2022-11-25T08:27:19.563Z,3.90
2022-11-25T08:29:52.156Z,3.90
2022-11-25T08:32:22.004Z,4.00
2022-11-25T08:34:51.899Z,4.00
2022-11-25T08:37:21.807Z,4.00
2022-11-25T08:39:53.730Z,4.00
2022-11-25T08:42:23.920Z,4.10
2022-11-25T08:44:59.426Z,4.10
2022-11-25T08:47:29.267Z,4.10
2022-11-25T08:49:59.126Z,4.20
2022-11-25T08:52:29.556Z,4.20
2022-11-25T08:54:59.466Z,4.20
2022-11-25T08:57:29.291Z,4.20
2022-11-25T09:00:01.700Z,4.30
2022-11-25T09:02:31.595Z,4.30
2022-11-25T09:05:01.559Z,4.40
2022-11-25T09:07:31.461Z,4.40
2022-11-25T09:10:01.406Z,4.40
2022-11-25T09:12:31.311Z,4.50
2022-11-25T09:15:03.799Z,4.50
2022-11-25T09:17:35.454Z,4.50
2022-11-25T09:20:05.329Z,4.50
2022-11-25T09:22:35.261Z,4.50
2022-11-25T09:25:05.110Z,4.50
2022-11-25T09:27:37.391Z,4.50
2022-11-25T09:30:11.787Z,4.50
2022-11-25T09:32:41.620Z,4.50
2022-11-25T09:35:12.005Z,4.50
2022-11-25T09:37:41.865Z,4.50
2022-11-25T09:40:21.393Z,4.50
2022-11-25T09:43:18.306Z,4.60
2022-11-25T09:46:11.129Z,4.60
2022-11-25T09:48:56.709Z,4.70
2022-11-25T09:51:34.822Z,4.60
2022-11-25T09:54:16.370Z,4.70
2022-11-25T09:56:51.967Z,4.70
2022-11-25T09:59:25.612Z,4.50
2022-11-25T10:02:03.951Z,4.60
2022-11-25T10:04:40.911Z,4.70
2022-11-25T10:07:21.146Z,4.70
2022-11-25T10:09:51.181Z,4.70
2022-11-25T10:12:27.983Z,4.80
2022-11-25T10:15:02.911Z,4.80
2022-11-25T10:17:49.343Z,4.80
2022-11-25T10:20:24.336Z,4.80
2022-11-25T10:22:58.450Z,4.80
2022-11-25T10:25:32.664Z,4.80
2022-11-25T10:28:05.300Z,4.70
2022-11-25T10:30:40.781Z,4.80
2022-11-25T10:33:21.885Z,4.80
2022-11-25T10:35:57.066Z,4.80
2022-11-25T10:38:33.524Z,4.80
2022-11-25T10:41:06.186Z,4.70
2022-11-25T10:43:37.829Z,4.70
2022-11-25T10:46:19.328Z,4.80
2022-11-25T10:49:02.507Z,4.80
2022-11-25T10:51:41.268Z,4.80
2022-11-25T10:54:27.500Z,4.80
2022-11-25T10:57:00.652Z,4.80
2022-11-25T10:59:34.510Z,4.80
2022-11-25T11:02:26.715Z,4.80
2022-11-25T11:05:05.423Z,4.90
2022-11-25T11:07:39.592Z,4.90
2022-11-25T11:10:24.517Z,4.90
2022-11-25T11:13:00.355Z,4.90
2022-11-25T11:15:33.549Z,5.00
2022-11-25T11:18:24.597Z,5.00
2022-11-25T11:20:59.438Z,4.90
2022-11-25T11:23:30.294Z,4.90
2022-11-25T11:26:04.394Z,4.90
2022-11-25T11:28:43.038Z,5.00
2022-11-25T11:31:23.219Z,4.90
2022-11-25T11:34:03.718Z,5.10
2022-11-25T11:37:01.541Z,5.10
2022-11-25T11:40:00.877Z,5.10
2022-11-25T11:42:43.968Z,5.10
2022-11-25T11:45:34.633Z,5.20
2022-11-25T11:48:23.654Z,5.20
2022-11-25T11:50:58.699Z,5.20
2022-11-25T11:53:39.787Z,5.20
2022-11-25T11:59:29.268Z,5.10
2022-11-25T12:02:19.635Z,5.20
2022-11-25T12:04:59.000Z,5.10
2022-11-25T12:07:37.655Z,5.10
2022-11-25T12:10:25.199Z,5.10
2022-11-25T12:13:00.952Z,5.20
2022-11-25T12:15:42.349Z,5.20
2022-11-25T12:18:27.251Z,5.10
2022-11-25T12:21:05.273Z,5.10
2022-11-25T12:23:47.097Z,5.20
2022-11-25T12:26:27.483Z,5.10
2022-11-25T12:29:02.580Z,5.10
2022-11-25T12:31:40.735Z,5.10
2022-11-25T12:34:16.986Z,5.10
2022-11-25T12:36:49.682Z,5.10
2022-11-25T12:39:28.058Z,5.10
2022-11-25T12:42:04.774Z,5.20
2022-11-25T12:44:40.644Z,5.10
2022-11-25T12:47:14.362Z,5.10
2022-11-25T12:49:48.574Z,5.10
2022-11-25T12:52:45.652Z,5.10
2022-11-25T12:55:21.381Z,5.10
2022-11-25T12:58:28.498Z,5.10
2022-11-25T13:01:39.063Z,5.10
2022-11-25T13:04:41.622Z,5.10
2022-11-25T13:07:34.290Z,5.10
2022-11-25T13:10:24.739Z,5.10
2022-11-25T13:13:24.265Z,5.10
2022-11-25T13:15:57.016Z,5.10
2022-11-25T13:18:30.498Z,5.10
2022-11-25T13:21:08.556Z,5.10
2022-11-25T13:23:56.236Z,5.10
2022-11-25T13:26:51.529Z,5.10
2022-11-25T13:30:06.618Z,5.10
2022-11-25T13:32:43.043Z,5.10
2022-11-25T13:35:56.523Z,5.10
2022-11-25T13:39:00.446Z,5.20
2022-11-25T13:41:43.629Z,5.10
2022-11-25T13:44:28.434Z,5.20
2022-11-25T13:47:02.947Z,5.20
2022-11-25T13:49:39.766Z,5.20
2022-11-25T13:52:40.312Z,5.20
2022-11-25T13:55:35.388Z,5.20
2022-11-25T13:58:23.660Z,5.20
2022-11-25T14:01:29.486Z,5.30
2022-11-25T14:04:07.603Z,5.30
2022-11-25T14:07:07.449Z,5.30
2022-11-25T14:09:52.495Z,5.30
2022-11-25T14:12:40.262Z,5.30
2022-11-25T14:15:37.550Z,5.30
2022-11-25T14:22:00.012Z,5.40
2022-11-25T14:24:38.782Z,5.40
2022-11-25T14:27:18.490Z,5.40
2022-11-25T14:29:54.036Z,5.40
2022-11-25T14:32:31.147Z,5.40
2022-11-25T14:35:07.361Z,5.50
2022-11-25T14:37:46.878Z,5.50
2022-11-25T14:40:22.946Z,5.50
2022-11-25T14:43:00.690Z,5.50
2022-11-25T14:45:34.330Z,5.50
2022-11-25T14:48:16.907Z,5.50
2022-11-25T14:50:58.646Z,5.40
2022-11-25T14:53:31.711Z,5.40
2022-11-25T14:56:03.868Z,5.40
2022-11-25T14:58:34.119Z,5.40
2022-11-25T15:01:09.692Z,5.40
2022-11-25T15:03:39.645Z,5.30
2022-11-25T15:06:14.154Z,5.30
2022-11-25T15:08:49.192Z,5.30
2022-11-25T15:11:22.123Z,5.30
2022-11-25T15:13:57.522Z,5.20
2022-11-25T15:16:35.553Z,5.20
2022-11-25T15:19:08.123Z,5.20
2022-11-25T15:22:07.422Z,5.20
2022-11-25T15:24:36.344Z,5.20
2022-11-25T15:27:06.522Z,5.20
2022-11-25T15:29:45.107Z,5.20
2022-11-25T15:32:19.482Z,5.20
2022-11-25T15:34:50.695Z,5.20
2022-11-25T15:37:20.663Z,5.20
2022-11-25T15:39:53.298Z,5.20
2022-11-25T15:42:28.414Z,5.20
2022-11-25T15:45:07.165Z,5.20
2022-11-25T15:47:38.705Z,5.20
2022-11-25T15:50:21.767Z,5.20
2022-11-25T15:52:55.830Z,5.20
2022-11-25T15:55:34.847Z,5.20
2022-11-25T15:58:09.068Z,5.20
2022-11-25T16:00:41.694Z,5.20
2022-11-25T16:03:23.398Z,5.20
2022-11-25T16:05:58.110Z,5.20
2022-11-25T16:08:37.738Z,5.20
2022-11-25T16:11:19.549Z,5.20
2022-11-25T16:13:50.927Z,5.20
2022-11-25T16:16:30.135Z,5.20
2022-11-25T16:19:23.261Z,5.20
2022-11-25T16:22:02.490Z,5.20
2022-11-25T16:24:41.098Z,5.30
2022-11-25T16:27:23.262Z,5.20
2022-11-25T16:29:57.687Z,5.20
2022-11-25T16:32:29.931Z,5.30
2022-11-25T16:35:05.669Z,5.30
2022-11-25T16:37:35.481Z,5.20
2022-11-25T16:40:05.494Z,5.20
2022-11-25T16:42:37.937Z,5.20
2022-11-25T16:45:23.468Z,5.20
2022-11-25T16:47:54.307Z,5.20
2022-11-25T16:50:25.302Z,5.20
2022-11-25T16:52:55.212Z,5.20
2022-11-25T16:55:25.489Z,5.30
2022-11-25T16:57:57.932Z,5.20
2022-11-25T17:00:28.011Z,5.20
2022-11-25T17:02:57.896Z,5.20
2022-11-25T17:05:30.108Z,5.20
2022-11-25T17:08:00.159Z,5.30
2022-11-25T17:10:30.443Z,5.20
2022-11-25T17:13:04.939Z,5.20
2022-11-25T17:15:38.780Z,5.20
2022-11-25T17:18:10.647Z,5.20
2022-11-25T17:20:40.555Z,5.20
2022-11-25T17:23:15.568Z,5.20
2022-11-25T17:25:48.908Z,5.20
2022-11-25T17:28:24.610Z,5.20
2022-11-25T17:30:55.115Z,5.20
2022-11-25T17:33:25.168Z,5.20
2022-11-25T17:35:54.989Z,5.20
2022-11-25T17:38:24.854Z,5.20
2022-11-25T17:40:55.361Z,5.20
2022-11-25T17:43:33.175Z,5.20
2022-11-25T17:46:04.440Z,5.20
2022-11-25T17:48:34.442Z,5.20
2022-11-25T17:51:07.397Z,5.20
2022-11-25T17:53:38.850Z,5.20
2022-11-25T17:56:22.149Z,5.10
2022-11-25T17:58:55.279Z,5.20
2022-11-25T18:01:25.178Z,5.10
2022-11-25T18:03:55.191Z,5.10
2022-11-25T18:06:25.171Z,5.10
2022-11-25T18:08:55.007Z,5.10
2022-11-25T18:11:25.146Z,5.10
2022-11-25T18:13:58.223Z,5.10
2022-11-25T18:16:29.508Z,5.10
2022-11-25T18:18:59.619Z,5.10
2022-11-25T18:21:29.473Z,5.10
2022-11-25T18:24:00.578Z,5.10
2022-11-25T18:26:30.541Z,5.10
2022-11-25T18:29:04.558Z,5.00
2022-11-25T18:31:34.416Z,5.00
2022-11-25T18:34:04.253Z,5.00
2022-11-25T18:36:34.077Z,5.00
2022-11-25T18:39:03.877Z,5.00
2022-11-25T18:41:33.805Z,5.10
2022-11-25T18:44:08.973Z,5.10
2022-11-25T18:46:40.441Z,5.00
2022-11-25T18:49:15.694Z,5.00
2022-11-25T18:51:46.198Z,5.00
2022-11-25T18:54:16.357Z,5.00
2022-11-25T18:56:53.295Z,5.00
2022-11-25T18:59:30.642Z,5.00
2022-11-25T19:02:00.753Z,5.00
2022-11-25T19:04:31.293Z,5.00
2022-11-25T19:07:01.288Z,5.00
2022-11-25T19:09:31.110Z,5.00
2022-11-25T19:12:00.967Z,5.00
2022-11-25T19:14:36.619Z,5.00
2022-11-25T19:17:14.342Z,5.00
2022-11-25T19:19:46.626Z,5.00
2022-11-25T19:22:18.904Z,5.00
2022-11-25T19:24:48.986Z,5.00
2022-11-25T19:27:23.483Z,5.00
2022-11-25T19:29:56.078Z,5.00
2022-11-25T19:32:29.635Z,5.00
2022-11-25T19:35:04.262Z,5.00
2022-11-25T19:37:34.214Z,5.00
2022-11-25T19:40:07.659Z,5.00
2022-11-25T19:42:37.502Z,5.00
2022-11-25T19:45:13.033Z,5.00
2022-11-25T19:47:43.132Z,5.00
2022-11-25T19:50:21.559Z,5.00
2022-11-25T19:52:51.554Z,5.00
2022-11-25T19:55:24.190Z,5.00
2022-11-25T19:57:55.570Z,5.00
2022-11-25T20:00:28.980Z,5.00
2022-11-25T20:02:59.153Z,5.00
2022-11-25T20:05:34.323Z,5.00
2022-11-25T20:08:04.846Z,5.00
2022-11-25T20:10:35.397Z,5.00
2022-11-25T20:13:05.261Z,5.00
2022-11-25T20:15:39.136Z,5.00
2022-11-25T20:18:12.608Z,5.00
2022-11-25T20:20:45.692Z,5.00
2022-11-25T20:23:23.827Z,5.10
2022-11-25T20:25:57.248Z,5.00
2022-11-25T20:28:31.508Z,5.00
2022-11-25T20:31:06.158Z,5.00
2022-11-25T20:33:36.023Z,5.00
2022-11-25T20:36:10.381Z,5.00
2022-11-25T20:38:46.386Z,5.00
2022-11-25T20:41:17.299Z,5.10
2022-11-25T20:43:51.170Z,5.10
2022-11-25T20:46:27.098Z,5.10
2022-11-25T20:48:59.802Z,5.10
2022-11-25T20:51:30.021Z,5.10
2022-11-25T20:54:03.357Z,5.10
2022-11-25T20:56:34.658Z,5.10
2022-11-25T20:59:04.486Z,5.10
2022-11-25T21:01:36.972Z,5.10
2022-11-25T21:04:07.550Z,5.10
2022-11-25T21:06:41.089Z,5.10
2022-11-25T21:09:20.354Z,5.10
2022-11-25T21:11:50.701Z,5.10
2022-11-25T21:14:22.544Z,5.10
2022-11-25T21:16:55.134Z,5.10
2022-11-25T21:19:24.963Z,5.10
2022-11-25T21:21:55.037Z,5.10
2022-11-25T21:24:33.453Z,5.10
2022-11-25T21:27:08.751Z,5.10
2022-11-25T21:29:42.683Z,5.10
2022-11-25T21:32:23.484Z,5.10
2022-11-25T21:34:53.958Z,5.10
2022-11-25T21:37:32.530Z,5.10
2022-11-25T21:40:03.066Z,5.10
2022-11-25T21:42:34.174Z,5.10
2022-11-25T21:45:04.503Z,5.10
2022-11-25T21:47:36.926Z,5.20
2022-11-25T21:50:16.646Z,5.10
2022-11-25T21:52:46.543Z,5.10
2022-11-25T21:55:17.481Z,5.20
2022-11-25T21:57:47.914Z,5.10
2022-11-25T22:00:25.902Z,5.10
2022-11-25T22:02:58.400Z,5.20
2022-11-25T22:05:29.746Z,5.20
2022-11-25T22:07:59.779Z,5.20
2022-11-25T22:10:29.700Z,5.20
2022-11-25T22:12:59.541Z,5.20
2022-11-25T22:15:29.403Z,5.20
2022-11-25T22:18:01.962Z,5.20
2022-11-25T22:20:36.195Z,5.10
2022-11-25T22:23:14.392Z,5.20
2022-11-25T22:25:44.316Z,5.10
2022-11-25T22:28:17.306Z,5.20
2022-11-25T22:30:52.538Z,5.20
2022-11-25T22:33:32.767Z,5.20
2022-11-25T22:36:02.918Z,5.20
2022-11-25T22:38:33.590Z,5.20
2022-11-25T22:41:06.466Z,5.20
2022-11-25T22:43:41.403Z,5.10
2022-11-25T22:46:13.225Z,5.10
2022-11-25T22:48:45.746Z,5.20
2022-11-25T22:51:19.571Z,5.20
2022-11-25T22:53:49.514Z,5.20
2022-11-25T22:56:21.992Z,5.20
2022-11-25T22:58:52.414Z,5.20
2022-11-25T23:01:22.647Z,5.20
2022-11-25T23:03:55.121Z,5.20
2022-11-25T23:06:24.970Z,5.20
2022-11-25T23:08:54.806Z,5.20
2022-11-25T23:11:24.638Z,5.20
2022-11-25T23:13:54.429Z,5.20
2022-11-25T23:16:24.363Z,5.20
2022-11-25T23:18:56.871Z,5.20
2022-11-25T23:21:29.277Z,5.20
2022-11-25T23:23:59.620Z,5.20
2022-11-25T23:26:34.981Z,5.20
2022-11-25T23:29:05.558Z,5.20
2022-11-25T23:31:37.415Z,5.20
2022-11-25T23:34:10.931Z,5.30
2022-11-25T23:36:47.354Z,5.20
2022-11-25T23:39:24.166Z,5.20
2022-11-25T23:41:54.526Z,5.20
2022-11-25T23:44:27.949Z,5.30
2022-11-25T23:47:02.996Z,5.20
2022-11-25T23:49:40.364Z,5.30
2022-11-25T23:52:15.724Z,5.20
2022-11-25T23:54:48.249Z,5.20
2022-11-25T23:57:19.283Z,5.20
2022-11-25T23:59:50.526Z,5.30
